sensor_id;sensor_type;location;lat;lon;timestamp;temperature;humidity
46335;DHT22;32051;48.882;9.210;2023-07-16T13:28:23;35.10;67.80
46335;DHT22;32051;48.882;9.210;2023-07-16T13:30:49;35.20;71.40
46335;DHT22;32051;48.882;9.210;2023-07-16T13:33:15;35.40;68.40
46335;DHT22;32051;48.882;9.210;2023-07-16T13:35:41;35.80;68.20
46335;DHT22;32051;48.882;9.210;2023-07-16T13:38:07;36.00;67.90
46335;DHT22;32051;48.882;9.210;2023-07-16T13:40:33;36.30;68.10
46335;DHT22;32051;48.882;9.210;2023-07-16T13:42:58;36.60;66.90
46335;DHT22;32051;48.882;9.210;2023-07-16T13:45:24;36.80;66.90
46335;DHT22;32051;48.882;9.210;2023-07-16T13:47:50;36.90;66.20
46335;DHT22;32051;48.882;9.210;2023-07-16T13:50:20;36.90;65.30
46335;DHT22;32051;48.882;9.210;2023-07-16T13:52:46;37.00;65.70
46335;DHT22;32051;48.882;9.210;2023-07-16T13:55:12;37.20;64.20
46335;DHT22;32051;48.882;9.210;2023-07-16T13:57:38;37.10;64.10
46335;DHT22;32051;48.882;9.210;2023-07-16T14:00:04;37.00;65.20
46335;DHT22;32051;48.882;9.210;2023-07-16T14:02:30;37.00;65.10
46335;DHT22;32051;48.882;9.210;2023-07-16T14:04:56;37.20;64.70
46335;DHT22;32051;48.882;9.210;2023-07-16T14:07:22;37.50;63.20
46335;DHT22;32051;48.882;9.210;2023-07-16T14:09:48;37.60;64.10
46335;DHT22;32051;48.882;9.210;2023-07-16T14:12:14;37.60;62.90
46335;DHT22;32051;48.882;9.210;2023-07-16T14:14:39;37.80;63.20
46335;DHT22;32051;48.882;9.210;2023-07-16T14:17:05;37.60;62.10
46335;DHT22;32051;48.882;9.210;2023-07-16T14:19:32;36.80;62.70
46335;DHT22;32051;48.882;9.210;2023-07-16T14:21:58;36.50;64.20
46335;DHT22;32051;48.882;9.210;2023-07-16T14:24:24;35.80;63.40
46335;DHT22;32051;48.882;9.210;2023-07-16T14:26:50;35.10;66.20
46335;DHT22;32051;48.882;9.210;2023-07-16T14:29:15;34.70;66.10
46335;DHT22;32051;48.882;9.210;2023-07-16T14:31:41;34.10;68.40
46335;DHT22;32051;48.882;9.210;2023-07-16T14:34:07;33.80;67.50
46335;DHT22;32051;48.882;9.210;2023-07-16T14:36:32;33.70;68.90
46335;DHT22;32051;48.882;9.210;2023-07-16T14:38:58;33.50;68.00
46335;DHT22;32051;48.882;9.210;2023-07-16T14:41:24;33.60;68.50
46335;DHT22;32051;48.882;9.210;2023-07-16T14:43:49;33.90;68.60
46335;DHT22;32051;48.882;9.210;2023-07-16T14:46:18;34.20;67.80
46335;DHT22;32051;48.882;9.210;2023-07-16T14:48:44;34.00;67.90
46335;DHT22;32051;48.882;9.210;2023-07-16T14:51:10;34.30;67.00
46335;DHT22;32051;48.882;9.210;2023-07-16T14:53:37;34.50;67.20
46335;DHT22;32051;48.882;9.210;2023-07-16T14:56:03;34.50;66.10
46335;DHT22;32051;48.882;9.210;2023-07-16T14:58:33;34.30;66.00
46335;DHT22;32051;48.882;9.210;2023-07-16T15:03:36;32.60;67.90
46335;DHT22;32051;48.882;9.210;2023-07-16T15:06:03;32.50;68.90
46335;DHT22;32051;48.882;9.210;2023-07-16T15:08:29;32.00;70.70
46335;DHT22;32051;48.882;9.210;2023-07-16T15:10:56;31.50;71.20
46335;DHT22;32051;48.882;9.210;2023-07-16T15:13:22;31.00;70.90
46335;DHT22;32051;48.882;9.210;2023-07-16T15:15:51;30.60;71.50
46335;DHT22;32051;48.882;9.210;2023-07-16T15:18:18;30.20;73.00
46335;DHT22;32051;48.882;9.210;2023-07-16T15:20:45;29.90;72.30
46335;DHT22;32051;48.882;9.210;2023-07-16T15:23:11;29.60;73.50
46335;DHT22;32051;48.882;9.210;2023-07-16T15:25:37;29.40;73.50
46335;DHT22;32051;48.882;9.210;2023-07-16T15:28:03;29.00;73.40
46335;DHT22;32051;48.882;9.210;2023-07-16T15:30:28;28.70;74.70
46335;DHT22;32051;48.882;9.210;2023-07-16T15:32:54;28.50;75.90
46335;DHT22;32051;48.882;9.210;2023-07-16T15:35:20;28.20;75.70
46335;DHT22;32051;48.882;9.210;2023-07-16T15:37:46;28.00;76.10
46335;DHT22;32051;48.882;9.210;2023-07-16T15:40:15;27.70;76.60
46335;DHT22;32051;48.882;9.210;2023-07-16T15:42:41;27.60;76.80
46335;DHT22;32051;48.882;9.210;2023-07-16T15:45:11;27.40;77.30
46335;DHT22;32051;48.882;9.210;2023-07-16T15:47:45;27.30;78.50
46335;DHT22;32051;48.882;9.210;2023-07-16T15:50:11;27.10;76.90
46335;DHT22;32051;48.882;9.210;2023-07-16T15:52:37;26.90;77.80
46335;DHT22;32051;48.882;9.210;2023-07-16T15:55:03;26.80;78.80
46335;DHT22;32051;48.882;9.210;2023-07-16T15:57:30;26.60;77.90
46335;DHT22;32051;48.882;9.210;2023-07-16T15:59:57;26.50;78.70
46335;DHT22;32051;48.882;9.210;2023-07-16T16:02:22;26.40;79.40
46335;DHT22;32051;48.882;9.210;2023-07-16T16:04:49;26.40;79.70
46335;DHT22;32051;48.882;9.210;2023-07-16T16:07:15;26.20;78.20
46335;DHT22;32051;48.882;9.210;2023-07-16T16:09:40;26.10;78.30
46335;DHT22;32051;48.882;9.210;2023-07-16T16:12:08;26.00;79.60
46335;DHT22;32051;48.882;9.210;2023-07-16T16:14:33;25.90;79.70
46335;DHT22;32051;48.882;9.210;2023-07-16T16:16:59;25.80;79.30
46335;DHT22;32051;48.882;9.210;2023-07-16T16:19:25;25.80;79.80
46335;DHT22;32051;48.882;9.210;2023-07-16T16:21:51;25.80;80.00
46335;DHT22;32051;48.882;9.210;2023-07-16T16:24:16;25.80;79.00
46335;DHT22;32051;48.882;9.210;2023-07-16T16:26:42;25.60;79.90
46335;DHT22;32051;48.882;9.210;2023-07-16T16:29:08;25.60;79.60
46335;DHT22;32051;48.882;9.210;2023-07-16T16:31:34;25.50;80.10
46335;DHT22;32051;48.882;9.210;2023-07-16T16:33:59;25.50;79.70
46335;DHT22;32051;48.882;9.210;2023-07-16T16:36:25;25.40;79.40
46335;DHT22;32051;48.882;9.210;2023-07-16T16:38:51;25.40;80.30
46335;DHT22;32051;48.882;9.210;2023-07-16T16:41:16;25.40;80.20
46335;DHT22;32051;48.882;9.210;2023-07-16T16:43:42;25.30;79.20
46335;DHT22;32051;48.882;9.210;2023-07-16T16:46:09;25.30;80.30
46335;DHT22;32051;48.882;9.210;2023-07-16T16:48:35;25.20;78.60
46335;DHT22;32051;48.882;9.210;2023-07-16T16:51:03;25.20;79.30
46335;DHT22;32051;48.882;9.210;2023-07-16T16:53:29;25.10;79.50
46335;DHT22;32051;48.882;9.210;2023-07-16T16:55:55;25.00;80.70
46335;DHT22;32051;48.882;9.210;2023-07-16T16:58:24;25.10;81.20
46335;DHT22;32051;48.882;9.210;2023-07-16T17:00:52;25.10;80.50
46335;DHT22;32051;48.882;9.210;2023-07-16T17:03:18;25.10;81.60
46335;DHT22;32051;48.882;9.210;2023-07-16T17:05:48;25.10;80.90
46335;DHT22;32051;48.882;9.210;2023-07-16T17:08:13;25.10;79.90
46335;DHT22;32051;48.882;9.210;2023-07-16T17:10:39;25.10;79.80
46335;DHT22;32051;48.882;9.210;2023-07-16T17:13:05;25.10;80.00
46335;DHT22;32051;48.882;9.210;2023-07-16T17:15:30;25.10;81.50
46335;DHT22;32051;48.882;9.210;2023-07-16T17:17:56;25.10;79.60
46335;DHT22;32051;48.882;9.210;2023-07-16T17:20:22;25.10;78.80
46335;DHT22;32051;48.882;9.210;2023-07-16T17:22:48;25.10;79.10
46335;DHT22;32051;48.882;9.210;2023-07-16T17:25:14;25.10;78.90
46335;DHT22;32051;48.882;9.210;2023-07-16T17:27:40;25.00;78.20
46335;DHT22;32051;48.882;9.210;2023-07-16T17:30:08;25.00;78.50
46335;DHT22;32051;48.882;9.210;2023-07-16T17:32:34;25.00;79.60
46335;DHT22;32051;48.882;9.210;2023-07-16T17:35:00;25.00;78.70
46335;DHT22;32051;48.882;9.210;2023-07-16T17:37:26;24.90;78.40
46335;DHT22;32051;48.882;9.210;2023-07-16T17:39:52;24.80;78.40
46335;DHT22;32051;48.882;9.210;2023-07-16T17:42:18;24.80;79.00
46335;DHT22;32051;48.882;9.210;2023-07-16T17:44:45;24.80;78.90
46335;DHT22;32051;48.882;9.210;2023-07-16T17:47:14;24.70;79.50
46335;DHT22;32051;48.882;9.210;2023-07-16T17:49:39;24.70;79.70
46335;DHT22;32051;48.882;9.210;2023-07-16T17:52:05;24.60;79.40
46335;DHT22;32051;48.882;9.210;2023-07-16T17:54:31;24.60;79.80
46335;DHT22;32051;48.882;9.210;2023-07-16T17:56:57;24.60;80.10
46335;DHT22;32051;48.882;9.210;2023-07-16T17:59:24;24.50;79.80
46335;DHT22;32051;48.882;9.210;2023-07-16T18:01:50;24.50;79.50
46335;DHT22;32051;48.882;9.210;2023-07-16T18:04:17;24.40;80.00
46335;DHT22;32051;48.882;9.210;2023-07-16T18:06:43;24.30;80.30
46335;DHT22;32051;48.882;9.210;2023-07-16T18:09:10;24.20;80.70
46335;DHT22;32051;48.882;9.210;2023-07-16T18:11:37;24.10;80.90
46335;DHT22;32051;48.882;9.210;2023-07-16T18:14:02;24.10;81.00
46335;DHT22;32051;48.882;9.210;2023-07-16T18:16:29;24.00;82.00
46335;DHT22;32051;48.882;9.210;2023-07-16T18:18:55;23.90;81.30
46335;DHT22;32051;48.882;9.210;2023-07-16T18:21:21;23.90;81.80
46335;DHT22;32051;48.882;9.210;2023-07-16T18:23:47;23.80;82.10
46335;DHT22;32051;48.882;9.210;2023-07-16T18:26:13;23.80;82.20
46335;DHT22;32051;48.882;9.210;2023-07-16T18:28:39;23.80;82.30
46335;DHT22;32051;48.882;9.210;2023-07-16T18:31:05;23.70;82.70
46335;DHT22;32051;48.882;9.210;2023-07-16T18:33:32;23.70;83.50
46335;DHT22;32051;48.882;9.210;2023-07-16T18:35:58;23.70;83.00
46335;DHT22;32051;48.882;9.210;2023-07-16T18:38:24;23.70;82.90
46335;DHT22;32051;48.882;9.210;2023-07-16T18:40:54;23.70;83.30
46335;DHT22;32051;48.882;9.210;2023-07-16T18:43:20;23.70;84.10
46335;DHT22;32051;48.882;9.210;2023-07-16T18:45:45;23.70;83.80
46335;DHT22;32051;48.882;9.210;2023-07-16T18:48:11;23.70;84.20
46335;DHT22;32051;48.882;9.210;2023-07-16T18:50:36;23.60;83.90
46335;DHT22;32051;48.882;9.210;2023-07-16T18:53:03;23.60;83.80
46335;DHT22;32051;48.882;9.210;2023-07-16T18:55:30;23.60;84.10
46335;DHT22;32051;48.882;9.210;2023-07-16T18:57:56;23.50;85.10
46335;DHT22;32051;48.882;9.210;2023-07-16T19:00:21;23.50;84.80
46335;DHT22;32051;48.882;9.210;2023-07-16T19:02:48;23.50;85.60
46335;DHT22;32051;48.882;9.210;2023-07-16T19:05:14;23.40;86.10
46335;DHT22;32051;48.882;9.210;2023-07-16T19:07:40;23.40;85.60
46335;DHT22;32051;48.882;9.210;2023-07-16T19:10:06;23.40;86.00
46335;DHT22;32051;48.882;9.210;2023-07-16T19:12:32;23.30;85.80
46335;DHT22;32051;48.882;9.210;2023-07-16T19:14:58;23.20;85.90
46335;DHT22;32051;48.882;9.210;2023-07-16T19:17:27;23.20;86.70
46335;DHT22;32051;48.882;9.210;2023-07-16T19:19:54;23.10;87.00
46335;DHT22;32051;48.882;9.210;2023-07-16T19:22:23;23.10;87.00
46335;DHT22;32051;48.882;9.210;2023-07-16T19:24:48;23.10;87.60
46335;DHT22;32051;48.882;9.210;2023-07-16T19:27:14;23.10;87.60
46335;DHT22;32051;48.882;9.210;2023-07-16T19:29:40;23.00;88.20
46335;DHT22;32051;48.882;9.210;2023-07-16T19:32:06;23.00;88.20
46335;DHT22;32051;48.882;9.210;2023-07-16T19:34:32;22.90;88.60
46335;DHT22;32051;48.882;9.210;2023-07-16T19:36:58;23.00;90.10
46335;DHT22;32051;48.882;9.210;2023-07-16T19:39:24;22.90;90.50
46335;DHT22;32051;48.882;9.210;2023-07-16T19:41:50;22.90;90.30
46335;DHT22;32051;48.882;9.210;2023-07-16T19:44:15;22.90;90.50
46335;DHT22;32051;48.882;9.210;2023-07-16T19:46:41;22.90;90.70
46335;DHT22;32051;48.882;9.210;2023-07-16T19:49:07;22.90;90.40
46335;DHT22;32051;48.882;9.210;2023-07-16T19:51:32;22.90;90.40
46335;DHT22;32051;48.882;9.210;2023-07-16T19:53:58;22.90;90.70
46335;DHT22;32051;48.882;9.210;2023-07-16T19:56:24;22.90;90.60
46335;DHT22;32051;48.882;9.210;2023-07-16T19:58:50;22.90;91.10
46335;DHT22;32051;48.882;9.210;2023-07-16T20:01:15;22.80;91.50
46335;DHT22;32051;48.882;9.210;2023-07-16T20:03:42;22.80;91.10
